• Join FlightAware (Why Join?)
  • Login
  • US Flag 
02:46AM EST


 

Airport Tracker/Info


-or-


 

Live Flight TrackerFlight Track Log ✈ N7667S ✈ 05-Aug-2014 ✈ KFOK - KTEB

Flight Track Log - Related Links

Times and Time Zones

All times are in EDT time to prevent confusion due to time zone crossing. See the N7667S flight status page for this flight to view local times or setup timezone preferences in your user account.

Time Position Orientation Groundspeed Altitude Reporting Facility
EDT Latitude Longitude Course Direction KTS MPH feet Rate Location/Type
11:26PM 40.8500 -74.0667 123° Southeast 81 93 400  Level New York TRACON
11:27PM 40.8333 -74.0333 123° Southeast 126 145 1,100 60 Climbing New York TRACON
11:41PM 40.7667 -73.9167 114° Southeast 143 165 2,000 60 Climbing New York TRACON
11:42PM 40.8501 -74.0608 91° East  Level Estimated
11:42PM 40.7833 -73.8667 66° East 150 173 2,100  Level New York TRACON
11:43PM 40.8501 -74.0608 91° East  Level Estimated
11:44PM 40.8501 -74.0608 91° East  Level Estimated
11:44PM 40.8167 -73.7667 66° East 154 177 2,100  Level New York TRACON
11:45PM 40.8501 -74.0608 91° East  Level Estimated
11:45PM 40.8333 -73.7167 66° East 151 174 2,200  Level New York TRACON
11:47PM 40.9000 -73.6333 43° Northeast 144 166 3,100 240 Climbing New York TRACON
11:48PM 40.9167 -73.5833 66° East 153 176 3,100  Level New York TRACON
11:50PM 40.9500 -73.4833 66° East 152 175 3,100  Level New York TRACON
11:51PM 40.9500 -73.4333 90° East 154 177 3,100  Level New York TRACON
11:52PM 40.9667 -73.3833 66° East 153 176 3,100  Level New York TRACON
11:53PM 40.9667 -73.3333 90° East 153 176 3,100  Level New York TRACON
11:54PM 40.9667 -73.2667 90° East 155 178 3,100  Level New York TRACON
11:55PM 40.9667 -73.2167 90° East 155 178 3,100  Level New York TRACON
11:57PM 40.9833 -73.1000 79° East 151 174 3,100  Level New York TRACON
11:59PM 40.9833 -73.0000 90° East 154 177 3,100  Level New York TRACON
12:01AM 40.9833 -72.8833 90° East 154 177 3,100  Level New York TRACON
12:02AM 40.9833 -72.8167 90° East 154 177 3,100  Level New York TRACON
12:04AM 40.9833 -72.7000 90° East 155 178 3,100  Level New York TRACON
12:05AM 40.9833 -72.6500 90° East 155 178 3,100  Level New York TRACON
12:06AM 40.9833 -72.6000 90° East 151 174 3,100  Level New York TRACON
12:07AM 40.9667 -72.5500 114° Southeast 148 170 3,100  Level New York TRACON
12:08AM 40.9667 -72.4833 90° East 147 169 3,100 -60 Level New York TRACON
12:09AM 40.9667 -72.4333 90° East 139 160 3,000 -60 Descending New York TRACON
12:10AM 40.9667 -72.4000 90° East 127 146 3,000  Level New York TRACON
12:11AM 40.9667 -72.3500 90° East 123 142 3,000  Level New York TRACON
12:12AM 40.9833 -72.3000 66° East 134 154 3,000 -600 Level New York TRACON
12:13AM 40.9667 -72.2833 143° Southeast 102 117 1,800  Descending New York TRACON
12:32AM 41.0500 -72.3833 270° West 135 155 3,000 60 Climbing New York TRACON
12:32AM 41.0333 -72.4167 236° Southwest 135 155 3,000  Level New York TRACON
12:33AM 41.0963 -72.6995 318° Northwest  Level FlightAware Approximate
12:34AM 41.1106 -72.7167 318° Northwest  Level FlightAware Approximate
12:34AM 41.0333 -72.4833 270° West 137 158 3,000  Level New York TRACON
12:35AM 41.1250 -72.7338 318° Northwest  Level FlightAware Approximate
12:35AM 41.0333 -72.5333 270° West 144 166 3,000  Level New York TRACON
12:36AM 41.1394 -72.7510 318° Northwest  Level FlightAware Approximate
12:36AM 41.0333 -72.5833 270° West 150 173 3,000  Level New York TRACON
12:37AM 41.0167 -72.6333 246° West 150 173 3,000  Level New York TRACON
12:38AM 41.0167 -72.7000 270° West 149 171 3,000  Level New York TRACON
12:39AM 41.0167 -72.7500 270° West 150 173 3,000  Level New York TRACON
12:40AM 41.0167 -72.8000 270° West 152 175 3,000  Level New York TRACON
12:42AM 41.0107 -72.8472 260° West  Level Estimated
12:49AM 41.1452 -72.8675 354° North  Level FlightAware Approximate
12:50AM 41.1644 -72.8704 354° North  Level FlightAware Approximate
12:51AM 41.1836 -72.8733 354° North  Level FlightAware Approximate
12:52AM 41.2029 -72.8762 354° North  Level FlightAware Approximate
12:53AM 41.2221 -72.8791 354° North  Level FlightAware Approximate
12:54AM 41.2147 -72.9029 272° West  Level Estimated
12:55AM 41.2168 -72.9285 276° West  Level FlightAware Approximate
12:56AM 41.2189 -72.9540 276° West  Level FlightAware Approximate
12:57AM 41.2209 -72.9796 276° West  Level FlightAware Approximate
12:58AM 41.2230 -73.0051 276° West  Level FlightAware Approximate
12:59AM 41.2250 -73.0307 276° West  Level FlightAware Approximate
01:00AM 41.2271 -73.0563 276° West  Level FlightAware Approximate
01:01AM 41.2291 -73.0819 276° West  Level FlightAware Approximate
01:02AM 41.2312 -73.1074 276° West  Level FlightAware Approximate
01:03AM 41.2332 -73.1330 276° West  Level FlightAware Approximate
01:04AM 41.2352 -73.1586 276° West  Level FlightAware Approximate
01:05AM 41.2372 -73.1842 276° West  Level FlightAware Approximate
01:06AM 41.2392 -73.2097 276° West  Level FlightAware Approximate
01:07AM 41.2412 -73.2353 276° West  Level FlightAware Approximate
01:08AM 41.2432 -73.2609 276° West  Level FlightAware Approximate
01:09AM 41.2452 -73.2865 276° West  Level FlightAware Approximate
01:10AM 41.2472 -73.3121 276° West  Level FlightAware Approximate
01:11AM 41.2492 -73.3377 276° West  Level FlightAware Approximate
01:12AM 41.2512 -73.3632 276° West  Level FlightAware Approximate
01:13AM 41.2531 -73.3888 276° West  Level FlightAware Approximate
01:14AM 41.2551 -73.4144 276° West  Level FlightAware Approximate
01:15AM 41.2571 -73.4400 276° West  Level FlightAware Approximate
01:16AM 41.2590 -73.4656 276° West  Level FlightAware Approximate
01:17AM 41.2610 -73.4912 276° West  Level FlightAware Approximate
01:18AM 41.2629 -73.5168 276° West  Level FlightAware Approximate
01:19AM 41.2648 -73.5424 276° West  Level FlightAware Approximate
01:20AM 41.2668 -73.5680 276° West  Level FlightAware Approximate
01:21AM 41.2659 -73.5824 266° West  Level FlightAware Approximate
01:22AM 41.2645 -73.6081 266° West  Level FlightAware Approximate
01:23AM 41.2632 -73.6338 266° West  Level FlightAware Approximate
01:24AM 41.2619 -73.6594 266° West  Level FlightAware Approximate
01:25AM 41.2605 -73.6851 266° West  Level FlightAware Approximate
01:26AM 41.2592 -73.7108 266° West  Level FlightAware Approximate
01:27AM 41.2578 -73.7364 266° West  Level FlightAware Approximate
01:28AM 41.2565 -73.7621 266° West  Level FlightAware Approximate
01:29AM 41.2551 -73.7878 266° West  Level FlightAware Approximate
01:30AM 41.2537 -73.8134 266° West  Level FlightAware Approximate
01:31AM 41.2524 -73.8391 266° West  Level FlightAware Approximate
01:32AM 41.2510 -73.8647 266° West  Level FlightAware Approximate
01:33AM 41.2483 -73.8901 252° West  Level FlightAware Approximate
01:34AM 41.2422 -73.9145 252° West  Level FlightAware Approximate
01:35AM 41.2361 -73.9389 252° West  Level FlightAware Approximate
01:36AM 41.2333 -73.9640 270° West  Level FlightAware Approximate
01:37AM 41.2333 -73.9897 270° West  Level FlightAware Approximate
01:38AM 41.2333 -74.0154 270° West  Level FlightAware Approximate
01:39AM 41.2333 -74.0411 270° West  Level FlightAware Approximate
01:40AM 41.2333 -74.0668 262° West  Level FlightAware Approximate
01:41AM 41.2308 -74.0923 262° West  Level FlightAware Approximate
01:42AM 41.2282 -74.1178 262° West  Level FlightAware Approximate
01:43AM 41.2257 -74.1433 262° West  Level FlightAware Approximate
01:44AM 41.2231 -74.1688 262° West  Level FlightAware Approximate
01:45AM 41.2206 -74.1943 262° West  Level FlightAware Approximate
01:46AM 41.2180 -74.2198 262° West  Level FlightAware Approximate
01:47AM 41.2143 -74.2450 255° West  Level FlightAware Approximate
01:48AM 41.2094 -74.2698 255° West  Level FlightAware Approximate
01:49AM 41.2044 -74.2947 255° West  Level FlightAware Approximate
01:50AM 41.1986 -74.3190 231° Southwest  Level FlightAware Approximate
01:51AM 41.1866 -74.3391 231° Southwest  Level FlightAware Approximate
01:52AM 41.1745 -74.3592 231° Southwest  Level FlightAware Approximate
01:53AM 41.1625 -74.3792 231° Southwest  Level FlightAware Approximate
01:54AM 41.1504 -74.3993 231° Southwest  Level FlightAware Approximate
01:55AM 41.1381 -74.4191 230° Southwest  Level FlightAware Approximate
01:56AM 41.1257 -74.4389 230° Southwest  Level FlightAware Approximate
01:57AM 41.1134 -74.4586 230° Southwest  Level FlightAware Approximate
01:58AM 41.1011 -74.4784 230° Southwest  Level FlightAware Approximate
01:59AM 41.0887 -74.4981 230° Southwest  Level FlightAware Approximate
02:00AM 41.0763 -74.5179 230° Southwest  Level FlightAware Approximate
02:01AM 41.0644 -74.5287 123° Southeast  Level FlightAware Approximate
02:02AM 41.0537 -74.5073 123° Southeast  Level FlightAware Approximate
02:03AM 41.0430 -74.4859 123° Southeast  Level FlightAware Approximate
02:04AM 41.0323 -74.4645 124° Southeast  Level FlightAware Approximate
02:05AM 41.0216 -74.4432 124° Southeast  Level FlightAware Approximate
02:06AM 41.0110 -74.4218 124° Southeast  Level FlightAware Approximate
02:07AM 41.0003 -74.4005 124° Southeast  Level FlightAware Approximate
02:08AM 40.9896 -74.3791 124° Southeast  Level FlightAware Approximate